Terminal Aerodrome Forecast
Issued by NWS

Home | Current Version | Previous Version | Text Only | Print | Product List | Glossary On
Versions: 1 2 3 4 5 6 7 8 9 10 11 12
000
FTUS45 KREV 250500
TAFCXP
TAF
KCXP 250521Z 2506/2606 20010KT P6SM FEW200
     FM251400 22012G22KT P6SM SCT200
     FM251800 24020G32KT P6SM SCT100 BKN200
     FM252300 25022G34KT P6SM SCT100 BKN200
     FM260300 28011G18KT P6SM SCT100 BKN200=

USA.gov is the U.S. government's official web portal to all federal, state and local government web resources and services.